createdAt,value
2022-12-13T00:00:09.419Z,98598.81
2022-12-13T00:02:43.042Z,98603.34
2022-12-13T00:05:15.793Z,98595.66
2022-12-13T00:07:44.585Z,98603.66
2022-12-13T00:10:13.399Z,98604.31
2022-12-13T00:12:43.659Z,98607.47
2022-12-13T00:15:16.922Z,98600.84
2022-12-13T00:17:59.210Z,98597.38
2022-12-13T00:20:29.353Z,98615.09
2022-12-13T00:22:57.828Z,98620.69
2022-12-13T00:25:35.258Z,98608.25
2022-12-13T00:28:05.555Z,98620.66
2022-12-13T00:30:33.742Z,98631.78
2022-12-13T00:33:03.919Z,98633.63
2022-12-13T00:35:32.603Z,98639.72
2022-12-13T00:38:00.679Z,98646.94
2022-12-13T00:40:29.503Z,98633.09
2022-12-13T00:43:01.951Z,98649.63
2022-12-13T00:45:30.990Z,98653.59
2022-12-13T00:47:58.751Z,98658.34
2022-12-13T00:50:31.101Z,98673.09
2022-12-13T00:53:00.564Z,98653.72
2022-12-13T00:55:29.337Z,98665.31
2022-12-13T00:57:58.358Z,98672.22
2022-12-13T01:00:29.109Z,98666.94
2022-12-13T01:02:56.875Z,98670.34
2022-12-13T01:06:04.109Z,98657.16
2022-12-13T01:08:19.181Z,98679.22
2022-12-13T01:10:48.142Z,98662.81
2022-12-13T01:13:17.616Z,98658.53
2022-12-13T01:15:46.670Z,98659.94
2022-12-13T01:18:18.494Z,98672.47
2022-12-13T01:21:07.469Z,98679.97
2022-12-13T01:23:35.591Z,98682.22
2022-12-13T01:26:10.841Z,98683.00
2022-12-13T01:28:39.245Z,98691.84
2022-12-13T01:31:11.387Z,98681.72
2022-12-13T01:33:39.972Z,98662.19
2022-12-13T01:36:13.084Z,98692.19
2022-12-13T01:38:44.481Z,98685.16
2022-12-13T01:41:27.297Z,98685.94
2022-12-13T01:44:01.491Z,98693.63
2022-12-13T01:46:32.421Z,98697.78
2022-12-13T01:49:05.709Z,98697.44
2022-12-13T01:51:56.654Z,98694.41
2022-12-13T01:54:33.999Z,98700.00
2022-12-13T01:57:06.844Z,98704.03
2022-12-13T01:59:37.113Z,98705.03
2022-12-13T02:02:05.880Z,98702.94
2022-12-13T02:04:56.177Z,98700.03
2022-12-13T02:07:32.170Z,98709.06
2022-12-13T02:10:04.035Z,98714.94
2022-12-13T02:12:35.355Z,98720.09
2022-12-13T02:15:12.879Z,98711.09
2022-12-13T02:17:45.917Z,98737.06
2022-12-13T02:20:34.603Z,98736.25
2022-12-13T02:23:26.596Z,98747.69
2022-12-13T02:26:25.151Z,98749.81
2022-12-13T02:29:30.760Z,98759.09
2022-12-13T02:32:14.438Z,98762.03
2022-12-13T02:34:50.775Z,98757.53
2022-12-13T02:37:31.372Z,98766.88
2022-12-13T02:40:06.755Z,98761.03
2022-12-13T02:42:42.158Z,98759.72
2022-12-13T02:45:20.968Z,98759.44
2022-12-13T02:47:53.176Z,98772.19
2022-12-13T02:50:23.784Z,98766.91
2022-12-13T02:52:52.793Z,98770.34
2022-12-13T02:55:23.927Z,98774.59
2022-12-13T02:57:54.048Z,98783.03
2022-12-13T03:00:49.649Z,98797.13
2022-12-13T03:03:48.412Z,98790.50
2022-12-13T03:06:41.143Z,98804.31
2022-12-13T03:09:27.001Z,98800.06
2022-12-13T03:12:31.962Z,98798.47
2022-12-13T03:15:35.162Z,98803.53
2022-12-13T03:18:18.145Z,98804.56
2022-12-13T03:20:55.236Z,98809.34
2022-12-13T03:23:23.940Z,98790.78
2022-12-13T03:25:57.379Z,98795.53
2022-12-13T03:28:25.284Z,98808.25
2022-12-13T03:30:52.951Z,98809.88
2022-12-13T03:33:20.623Z,98812.53
2022-12-13T03:35:48.480Z,98808.81
2022-12-13T03:38:21.903Z,98778.31
2022-12-13T03:40:58.513Z,98824.22
2022-12-13T03:43:26.634Z,98813.84
2022-12-13T03:45:55.183Z,98838.50
2022-12-13T03:48:23.775Z,98831.34
2022-12-13T03:50:53.199Z,98846.22
2022-12-13T03:53:32.557Z,98857.09
2022-12-13T03:56:06.835Z,98862.94
2022-12-13T03:58:37.627Z,98835.59
2022-12-13T04:01:10.909Z,98841.38
2022-12-13T04:03:41.895Z,98871.91
2022-12-13T04:06:10.910Z,98869.22
2022-12-13T04:08:39.956Z,98875.88
2022-12-13T04:11:26.834Z,98889.38
2022-12-13T04:13:55.343Z,98886.19
2022-12-13T04:16:24.277Z,98894.16
2022-12-13T04:18:52.300Z,98910.59
2022-12-13T04:21:20.039Z,98907.13
2022-12-13T04:23:47.793Z,98906.59
2022-12-13T04:26:15.654Z,98908.97
2022-12-13T04:28:43.244Z,98916.91
2022-12-13T04:31:10.955Z,98920.09
2022-12-13T04:33:38.651Z,98922.47
2022-12-13T04:36:06.697Z,98918.50
2022-12-13T04:38:34.305Z,98929.09
2022-12-13T04:41:13.865Z,98926.47
2022-12-13T04:43:41.570Z,98919.03
2022-12-13T04:46:09.286Z,98949.78
2022-12-13T04:48:37.032Z,98938.91
2022-12-13T04:51:04.655Z,98933.09
2022-12-13T04:53:32.549Z,98952.47
2022-12-13T04:56:03.211Z,98954.66
2022-12-13T04:58:31.571Z,98957.09
2022-12-13T05:00:59.353Z,98963.25
2022-12-13T05:03:29.036Z,98963.25
2022-12-13T05:05:57.204Z,98964.25
2022-12-13T05:08:24.926Z,98965.19
2022-12-13T05:10:54.498Z,98969.25
2022-12-13T05:13:22.070Z,98982.16
2022-12-13T05:15:56.707Z,98979.91
2022-12-13T05:18:24.531Z,98983.88
2022-12-13T05:20:52.354Z,98986.66
2022-12-13T05:23:22.189Z,98991.63
2022-12-13T05:25:51.667Z,99000.91
2022-12-13T05:28:28.358Z,98996.69
2022-12-13T05:30:59.663Z,98983.34
2022-12-13T05:33:27.409Z,99001.28
2022-12-13T05:35:59.367Z,99009.16
2022-12-13T05:38:29.647Z,99015.72
2022-12-13T05:40:57.437Z,99015.88
2022-12-13T05:43:42.179Z,99021.06
2022-12-13T05:46:12.849Z,99027.59
2022-12-13T05:48:41.450Z,99039.81
2022-12-13T05:51:11.933Z,99031.22
2022-12-13T05:53:42.114Z,99032.69
2022-12-13T05:56:11.688Z,99028.81
2022-12-13T05:58:40.810Z,99046.66
2022-12-13T06:01:11.399Z,99040.75
2022-12-13T06:03:40.257Z,99052.34
2022-12-13T06:06:09.776Z,99041.16
2022-12-13T06:08:37.762Z,99053.59
2022-12-13T06:11:10.970Z,99048.09
2022-12-13T06:13:43.263Z,99055.88
2022-12-13T06:16:21.773Z,99068.00
2022-12-13T06:19:02.739Z,99063.78
2022-12-13T06:21:41.769Z,99067.19
2022-12-13T06:24:22.400Z,99050.25
2022-12-13T06:26:51.191Z,99076.38
2022-12-13T06:29:23.199Z,99065.22
2022-12-13T06:32:02.293Z,99060.56
2022-12-13T06:34:36.135Z,99080.09
2022-12-13T06:37:11.279Z,99066.34
2022-12-13T06:39:39.274Z,99070.59
2022-12-13T06:42:11.104Z,99092.41
2022-12-13T06:44:38.765Z,99067.28
2022-12-13T06:47:11.808Z,99085.16
2022-12-13T06:49:44.233Z,99078.56
2022-12-13T06:52:14.542Z,99088.50
2022-12-13T06:54:43.412Z,99075.28
2022-12-13T06:57:14.593Z,99092.09
2022-12-13T06:59:42.992Z,99084.94
2022-12-13T07:02:24.424Z,99083.75
2022-12-13T07:04:53.832Z,99080.44
2022-12-13T07:07:21.891Z,99080.63
2022-12-13T07:09:49.576Z,99067.34
2022-12-13T07:12:18.966Z,99085.25
2022-12-13T07:14:46.575Z,99088.19
2022-12-13T07:17:32.640Z,99087.09
2022-12-13T07:20:05.025Z,99075.31
2022-12-13T07:22:35.002Z,99098.88
2022-12-13T07:25:05.538Z,99083.91
2022-12-13T07:27:34.405Z,99097.25
2022-12-13T07:30:02.468Z,99099.78
2022-12-13T07:32:31.587Z,99075.03
2022-12-13T07:34:59.289Z,99108.53
2022-12-13T07:37:29.342Z,99100.34
2022-12-13T07:40:04.019Z,99070.91
2022-12-13T07:42:32.650Z,99101.59
2022-12-13T07:45:00.747Z,99102.69
2022-12-13T07:47:32.479Z,99109.63
2022-12-13T07:50:01.662Z,99105.13
2022-12-13T07:52:31.425Z,99104.25
2022-12-13T07:54:59.237Z,99113.47
2022-12-13T07:57:27.429Z,99111.81
2022-12-13T07:59:55.108Z,99114.69
2022-12-13T08:02:22.926Z,99117.03
2022-12-13T08:04:54.627Z,99117.31
2022-12-13T08:07:23.159Z,99112.81
2022-12-13T08:09:53.011Z,99126.56
2022-12-13T08:12:22.439Z,99114.38
2022-12-13T08:14:53.326Z,99102.72
2022-12-13T08:17:21.458Z,99115.38
2022-12-13T08:19:49.201Z,99112.09
2022-12-13T08:22:24.196Z,99146.13
2022-12-13T08:24:52.359Z,99132.84
2022-12-13T08:27:20.082Z,99132.22
2022-12-13T08:29:49.364Z,99141.72
2022-12-13T08:32:17.562Z,99124.06
2022-12-13T08:34:46.128Z,99134.63
2022-12-13T08:37:14.252Z,99143.59
2022-12-13T08:39:42.125Z,99151.09
2022-12-13T08:42:18.831Z,99158.81
2022-12-13T08:44:52.972Z,99139.06
2022-12-13T08:47:25.536Z,99162.44
2022-12-13T08:50:04.558Z,99166.13
2022-12-13T08:52:40.499Z,99144.56
2022-12-13T08:55:11.432Z,99151.56
2022-12-13T08:57:41.008Z,99167.00
2022-12-13T09:00:12.591Z,99170.22
2022-12-13T09:02:40.440Z,99170.56
2022-12-13T09:05:09.934Z,99177.56
2022-12-13T09:07:41.391Z,99155.59
2022-12-13T09:10:27.082Z,99166.19
2022-12-13T09:13:02.464Z,99178.75
2022-12-13T09:15:46.139Z,99166.91
2022-12-13T09:18:15.163Z,99182.34
2022-12-13T09:20:52.439Z,99184.00
2022-12-13T09:23:24.077Z,99190.44
2022-12-13T09:25:56.597Z,99195.56
2022-12-13T09:28:37.304Z,99174.81
2022-12-13T09:31:14.568Z,99207.22
2022-12-13T09:33:43.279Z,99199.03
2022-12-13T09:36:17.791Z,99219.53
2022-12-13T09:38:46.117Z,99198.28
2022-12-13T09:41:20.461Z,99214.22
2022-12-13T09:44:01.372Z,99209.16
2022-12-13T09:46:44.190Z,99220.88
2022-12-13T09:49:23.618Z,99217.97
2022-12-13T09:52:11.797Z,99197.78
2022-12-13T09:54:48.729Z,99229.22
2022-12-13T09:57:35.023Z,99227.56
2022-12-13T10:00:07.473Z,99228.69
2022-12-13T10:02:52.205Z,99232.91
2022-12-13T10:05:34.136Z,99225.50
2022-12-13T10:08:21.207Z,99240.94
2022-12-13T10:10:51.697Z,99215.44
2022-12-13T10:13:26.030Z,99232.75
2022-12-13T10:16:08.555Z,99196.56
2022-12-13T10:18:39.449Z,99246.28
2022-12-13T10:21:36.625Z,99245.22
2022-12-13T10:24:31.450Z,99222.63
2022-12-13T10:27:15.895Z,99236.72
2022-12-13T10:30:13.131Z,99264.38
2022-12-13T10:32:56.092Z,99225.56
2022-12-13T10:35:28.580Z,99261.75
2022-12-13T10:37:58.597Z,99259.09
2022-12-13T10:40:33.435Z,99259.09
2022-12-13T10:43:15.673Z,99238.88
2022-12-13T10:45:59.611Z,99262.00
2022-12-13T10:48:50.304Z,99242.88
2022-12-13T10:51:21.177Z,99271.59
2022-12-13T10:53:50.230Z,99265.19
2022-12-13T10:56:23.395Z,99270.22
2022-12-13T10:59:23.378Z,99274.78
2022-12-13T11:01:51.121Z,99284.84
2022-12-13T11:04:29.616Z,99286.97
2022-12-13T11:07:00.622Z,99282.19
2022-12-13T11:09:39.208Z,99279.50
2022-12-13T11:12:21.414Z,99270.72
2022-12-13T11:15:01.053Z,99272.00
2022-12-13T11:17:31.776Z,99289.28
2022-12-13T11:20:04.612Z,99309.75
2022-12-13T11:22:38.295Z,99259.19
2022-12-13T11:25:19.998Z,99307.81
2022-12-13T11:28:37.570Z,99306.00
2022-12-13T11:31:28.108Z,99302.75
2022-12-13T11:33:58.437Z,99315.94
2022-12-13T11:36:58.385Z,99322.63
2022-12-13T11:39:35.833Z,99330.56
2022-12-13T11:42:12.397Z,99320.97
2022-12-13T11:45:04.345Z,99335.56
2022-12-13T11:47:40.941Z,99323.72
2022-12-13T11:50:32.699Z,99332.59
2022-12-13T11:53:09.838Z,99328.59
2022-12-13T11:55:44.893Z,99328.16
2022-12-13T11:59:10.130Z,99328.09
2022-12-13T12:01:53.816Z,99329.88
2022-12-13T12:04:32.629Z,99326.63
2022-12-13T12:10:36.821Z,99330.59
2022-12-13T12:13:29.042Z,99329.22
2022-12-13T12:16:15.153Z,99329.16
2022-12-13T12:18:42.634Z,99320.47
2022-12-13T12:22:12.049Z,99333.41
2022-12-13T12:24:53.927Z,99339.47
2022-12-13T12:27:31.334Z,99342.31
2022-12-13T12:30:09.478Z,99340.00
2022-12-13T12:33:00.327Z,99347.13
2022-12-13T12:35:49.647Z,99341.91
2022-12-13T12:38:35.815Z,99343.19
2022-12-13T12:41:32.374Z,99354.09
2022-12-13T12:44:20.983Z,99346.94
2022-12-13T12:47:08.770Z,99355.22
2022-12-13T12:49:47.046Z,99344.63
2022-12-13T12:52:46.228Z,99315.09
2022-12-13T12:55:41.941Z,99359.25
2022-12-13T12:58:31.470Z,99360.22
2022-12-13T13:01:25.373Z,99357.13
2022-12-13T13:04:01.527Z,99368.13
2022-12-13T13:06:41.422Z,99364.66
2022-12-13T13:09:11.905Z,99365.69
2022-12-13T13:11:43.027Z,99372.09
2022-12-13T13:14:26.918Z,99376.72
2022-12-13T13:16:56.101Z,99371.69
2022-12-13T13:19:32.842Z,99379.00
2022-12-13T13:22:01.897Z,99386.28
2022-12-13T13:24:33.100Z,99383.75
2022-12-13T13:27:09.907Z,99389.75
2022-12-13T13:29:43.873Z,99386.53
2022-12-13T13:32:28.062Z,99385.06
2022-12-13T13:35:29.438Z,99389.63
2022-12-13T13:37:59.629Z,99398.81
2022-12-13T13:40:39.428Z,99390.19
2022-12-13T13:43:06.977Z,99396.16
2022-12-13T13:45:51.226Z,99367.34
2022-12-13T13:48:37.309Z,99402.94
2022-12-13T13:51:13.840Z,99403.22
2022-12-13T13:54:23.166Z,99404.94
2022-12-13T13:58:07.559Z,99414.22
2022-12-13T14:00:39.084Z,99415.06
2022-12-13T14:03:35.079Z,99417.06
2022-12-13T14:06:24.615Z,99418.41
2022-12-13T14:09:27.293Z,99422.84
2022-12-13T14:12:15.734Z,99423.38
2022-12-13T14:15:24.074Z,99426.06
2022-12-13T14:18:27.068Z,99435.22
2022-12-13T14:21:15.936Z,99427.03
2022-12-13T14:24:18.289Z,99432.38
2022-12-13T14:26:51.537Z,99431.09
2022-12-13T14:29:31.946Z,99441.72
2022-12-13T14:32:00.078Z,99433.53
2022-12-13T14:34:33.289Z,99428.28
2022-12-13T14:37:06.725Z,99427.44
2022-12-13T14:39:39.142Z,99455.69
2022-12-13T14:42:30.620Z,99442.91
2022-12-13T14:45:25.557Z,99445.91
2022-12-13T14:47:55.073Z,99433.03
2022-12-13T14:50:26.136Z,99442.31
2022-12-13T14:52:56.509Z,99448.00
2022-12-13T14:55:36.739Z,99445.97
2022-12-13T14:58:18.381Z,99447.16
2022-12-13T15:00:47.140Z,99443.97
2022-12-13T15:03:28.694Z,99436.22
2022-12-13T15:06:01.050Z,99441.28
2022-12-13T15:08:31.463Z,99432.88
2022-12-13T15:11:08.085Z,99435.53
2022-12-13T15:13:47.464Z,99457.72
2022-12-13T15:16:35.444Z,99464.97
2022-12-13T15:19:31.331Z,99446.47
2022-12-13T15:22:13.621Z,99463.00
2022-12-13T15:24:49.373Z,99466.69
2022-12-13T15:27:24.720Z,99461.13
2022-12-13T15:29:54.717Z,99466.28
2022-12-13T15:32:23.610Z,99462.31
2022-12-13T15:34:52.665Z,99452.03
2022-12-13T15:37:33.469Z,99446.97
2022-12-13T15:40:09.556Z,99456.56
2022-12-13T15:42:39.492Z,99462.84
2022-12-13T15:45:19.245Z,99462.47
2022-12-13T15:47:48.223Z,99463.09
2022-12-13T15:50:37.555Z,99467.50
2022-12-13T15:53:29.149Z,99476.66
2022-12-13T15:56:00.342Z,99465.41
2022-12-13T15:58:36.821Z,99465.66
2022-12-13T16:01:06.226Z,99465.72
2022-12-13T16:03:47.483Z,99472.16
2022-12-13T16:06:22.527Z,99467.34
2022-12-13T16:09:03.213Z,99480.69
2022-12-13T16:11:34.019Z,99481.41
2022-12-13T16:14:49.409Z,99475.97
2022-12-13T16:17:29.758Z,99473.09
2022-12-13T16:20:07.681Z,99474.66
2022-12-13T16:22:37.024Z,99474.88
2022-12-13T16:25:04.836Z,99479.38
2022-12-13T16:27:34.663Z,99472.31
2022-12-13T16:30:02.361Z,99472.00
2022-12-13T16:32:36.143Z,99461.94
2022-12-13T16:35:17.948Z,99467.19
2022-12-13T16:37:47.940Z,99488.88
2022-12-13T16:40:31.357Z,99474.72
2022-12-13T16:43:05.192Z,99457.09
2022-12-13T16:45:44.587Z,99483.72
2022-12-13T16:48:13.379Z,99482.91
2022-12-13T16:50:46.470Z,99475.16
2022-12-13T16:53:17.457Z,99463.59
2022-12-13T16:55:58.015Z,99487.50
2022-12-13T16:58:26.603Z,99473.22
2022-12-13T17:00:58.879Z,99484.53
2022-12-13T17:03:28.181Z,99480.84
2022-12-13T17:05:58.675Z,99487.06
2022-12-13T17:08:26.809Z,99484.97
2022-12-13T17:10:57.846Z,99485.06
2022-12-13T17:13:27.249Z,99494.88
2022-12-13T17:15:59.797Z,99495.31
2022-12-13T17:18:27.730Z,99496.09
2022-12-13T17:20:58.366Z,99495.59
2022-12-13T17:23:27.541Z,99503.28
2022-12-13T17:25:57.839Z,99502.63
2022-12-13T17:28:26.001Z,99504.94
2022-12-13T17:30:55.009Z,99506.63
2022-12-13T17:33:23.158Z,99501.66
2022-12-13T17:35:51.183Z,99489.13
2022-12-13T17:38:18.675Z,99494.97
2022-12-13T17:40:54.392Z,99490.28
2022-12-13T17:43:33.089Z,99496.16
2022-12-13T17:46:05.377Z,99501.13
2022-12-13T17:48:39.791Z,99500.69
2022-12-13T17:51:09.581Z,99487.25
2022-12-13T17:53:39.827Z,99506.56
2022-12-13T17:56:09.778Z,99503.00
2022-12-13T17:58:37.982Z,99503.22
2022-12-13T18:01:16.932Z,99496.34
2022-12-13T18:03:45.258Z,99499.75
2022-12-13T18:06:12.894Z,99505.41
2022-12-13T18:08:42.695Z,99504.97
2022-12-13T18:13:59.518Z,99504.13
2022-12-13T18:16:33.941Z,99508.50
2022-12-13T18:19:06.632Z,99516.94
2022-12-13T18:21:35.795Z,99504.78
2022-12-13T18:24:03.921Z,99505.03
2022-12-13T18:26:31.499Z,99510.00
2022-12-13T18:28:59.005Z,99505.50
2022-12-13T18:31:27.013Z,99507.03
2022-12-13T18:33:55.143Z,99510.25
2022-12-13T18:36:25.134Z,99504.31
2022-12-13T18:38:53.825Z,99520.13
2022-12-13T18:41:24.530Z,99516.69
2022-12-13T18:44:03.264Z,99518.22
2022-12-13T18:46:32.916Z,99523.50
2022-12-13T18:49:01.398Z,99529.91
2022-12-13T18:51:29.163Z,99526.63
2022-12-13T18:53:56.929Z,99523.56
2022-12-13T18:56:26.047Z,99536.44
2022-12-13T18:58:55.250Z,99534.88
2022-12-13T19:01:23.250Z,99532.00
2022-12-13T19:03:51.577Z,99547.66
2022-12-13T19:06:29.480Z,99552.16
2022-12-13T19:08:59.092Z,99549.22
2022-12-13T19:11:28.401Z,99524.75
2022-12-13T19:13:56.287Z,99553.41
2022-12-13T19:16:25.396Z,99549.59
2022-12-13T19:18:53.310Z,99545.41
2022-12-13T19:21:22.332Z,99557.91
2022-12-13T19:23:56.400Z,99552.66
2022-12-13T19:26:27.771Z,99559.28
2022-12-13T19:28:57.195Z,99560.31
2022-12-13T19:31:31.023Z,99563.31
2022-12-13T19:34:01.882Z,99563.94
2022-12-13T19:36:31.040Z,99561.69
2022-12-13T19:38:59.169Z,99551.59
2022-12-13T19:41:27.395Z,99566.50
2022-12-13T19:43:54.943Z,99551.91
2022-12-13T19:46:22.582Z,99552.78
2022-12-13T19:48:50.531Z,99560.22
2022-12-13T19:51:18.385Z,99553.34
2022-12-13T19:53:46.533Z,99554.53
2022-12-13T19:56:17.900Z,99573.25
2022-12-13T19:58:47.054Z,99559.88
2022-12-13T20:01:15.429Z,99560.09
2022-12-13T20:03:45.924Z,99568.63
2022-12-13T20:06:17.153Z,99570.63
2022-12-13T20:08:45.581Z,99569.00
2022-12-13T20:11:16.364Z,99573.03
2022-12-13T20:13:43.938Z,99573.84
2022-12-13T20:16:23.362Z,99568.75
2022-12-13T20:18:59.375Z,99577.47
2022-12-13T20:21:28.023Z,99579.50
2022-12-13T20:23:55.637Z,99578.72
2022-12-13T20:26:25.380Z,99574.88
2022-12-13T20:28:53.114Z,99569.84
2022-12-13T20:31:24.309Z,99575.69
2022-12-13T20:33:57.561Z,99578.72
2022-12-13T20:36:28.038Z,99583.56
2022-12-13T20:38:57.350Z,99598.97
2022-12-13T20:41:27.003Z,99598.78
2022-12-13T20:43:56.024Z,99598.22
2022-12-13T20:46:24.944Z,99612.84
2022-12-13T20:48:53.220Z,99619.31
2022-12-13T20:51:22.949Z,99613.28
2022-12-13T20:53:52.528Z,99612.28
2022-12-13T20:56:25.758Z,99607.25
2022-12-13T20:58:53.505Z,99623.00
2022-12-13T21:01:30.848Z,99612.31
2022-12-13T21:04:00.726Z,99603.44
2022-12-13T21:06:30.157Z,99600.56
2022-12-13T21:09:08.272Z,99600.78
2022-12-13T21:11:37.685Z,99595.69
2022-12-13T21:14:21.458Z,99594.81
2022-12-13T21:16:52.170Z,99593.75
2022-12-13T21:19:27.657Z,99586.41
2022-12-13T21:21:56.920Z,99590.97
2022-12-13T21:24:26.233Z,99591.50
2022-12-13T21:26:56.750Z,99600.56
2022-12-13T21:29:24.835Z,99594.63
2022-12-13T21:31:53.666Z,99594.94
2022-12-13T21:34:22.565Z,99594.09
2022-12-13T21:36:55.018Z,99588.59
2022-12-13T21:39:28.165Z,99596.53
2022-12-13T21:41:56.925Z,99601.06
2022-12-13T21:44:24.508Z,99598.72
2022-12-13T21:47:11.862Z,99601.31
2022-12-13T21:49:40.150Z,99596.56
2022-12-13T21:52:07.669Z,99612.91
2022-12-13T21:54:35.115Z,99610.38
2022-12-13T21:57:20.853Z,99605.25
2022-12-13T21:59:48.320Z,99603.13
2022-12-13T22:02:18.850Z,99614.75
2022-12-13T22:04:50.742Z,99624.44
2022-12-13T22:07:19.585Z,99627.06
2022-12-13T22:09:48.400Z,99627.72
2022-12-13T22:12:29.952Z,99634.81
2022-12-13T22:14:57.467Z,99637.00
2022-12-13T22:17:33.027Z,99643.31
2022-12-13T22:20:03.221Z,99633.50
2022-12-13T22:22:32.030Z,99630.63
2022-12-13T22:24:59.608Z,99630.75
2022-12-13T22:27:27.101Z,99624.31
2022-12-13T22:29:57.406Z,99640.69
2022-12-13T22:32:27.762Z,99622.34
2022-12-13T22:34:55.843Z,99634.84
2022-12-13T22:37:23.880Z,99635.63
2022-12-13T22:39:51.579Z,99629.34
2022-12-13T22:42:19.976Z,99634.19
2022-12-13T22:44:48.020Z,99633.63
2022-12-13T22:47:15.622Z,99634.88
2022-12-13T22:49:43.106Z,99629.34
2022-12-13T22:52:10.639Z,99638.28
2022-12-13T22:54:38.153Z,99607.38
2022-12-13T22:57:07.458Z,99631.66
2022-12-13T22:59:34.981Z,99627.06
2022-12-13T23:02:04.235Z,99621.06
2022-12-13T23:04:34.682Z,99624.56
2022-12-13T23:07:02.201Z,99626.28
2022-12-13T23:09:30.986Z,99614.69
2022-12-13T23:12:16.784Z,99615.84
2022-12-13T23:14:44.208Z,99621.78
2022-12-13T23:17:11.809Z,99642.88
2022-12-13T23:19:50.944Z,99635.41
2022-12-13T23:22:25.967Z,99630.78
2022-12-13T23:24:53.987Z,99644.19
2022-12-13T23:27:23.518Z,99635.53
2022-12-13T23:29:51.055Z,99638.53
2022-12-13T23:32:18.559Z,99644.63
2022-12-13T23:34:46.035Z,99647.69
2022-12-13T23:37:13.997Z,99657.88
2022-12-13T23:39:41.878Z,99663.22
2022-12-13T23:42:09.506Z,99654.66
2022-12-13T23:44:37.028Z,99649.25
2022-12-13T23:47:04.542Z,99654.66
2022-12-13T23:49:32.639Z,99658.91
2022-12-13T23:52:00.102Z,99657.09
2022-12-13T23:54:27.593Z,99674.94
2022-12-13T23:56:55.118Z,99669.66
2022-12-13T23:59:26.161Z,99669.22
